Weather at Mccready Memorial Hospital Heliport

Public forecast

Using degrees Fahrenheit for public forecast. Weather courtesy of forecast.io.

Closest aviation weather report (METAR) to Mccready Memorial Hospital Heliport

Closest report is Tangier Island Airport, 10.5 nm (19.5 km) SW. Retrieved 2021/06/13 16:35 UTC (0 seconds ago):

KTGI 131635Z AUTO 03003KT 10SM CLR 24/17 A2994 RMK AO1 T02410169

Closest aviation forecast (TAF) to Mccready Memorial Hospital Heliport

Closest forecast is Salisbury Ocean City Wicomico Regional Airport, 28.0 nm (51.9 km) NE. Retrieved 2021/06/13 12:22 UTC (4 hours ago):

TAF KSBY 131120Z 1312/1412 06003KT P6SM SCT004 SCT015 TEMPO 1312/1314 3SM BR OVC004 FM131500 13005KT P6SM SCT040 FM131900 14007KT P6SM SCT050 FM140400 14002KT 4SM BR BKN100 FM140600 15002KT 2SM BR BKN008 FM141000 15002KT P6SM BKN020